createdAt,value
2018-08-07T00:00:00.949Z,3.63
2018-08-07T00:00:37.062Z,3.53
2018-08-07T00:01:11.164Z,3.50
2018-08-07T00:01:45.027Z,3.80
2018-08-07T00:02:19.026Z,3.93
2018-08-07T00:02:59.183Z,3.40
2018-08-07T00:03:35.149Z,3.60
2018-08-07T00:04:16.954Z,3.80
2018-08-07T00:04:57.649Z,3.80
2018-08-07T00:05:33.561Z,3.70
2018-08-07T00:06:59.988Z,3.47
2018-08-07T00:07:42.819Z,3.53
2018-08-07T00:08:22.403Z,3.60
2018-08-07T00:08:56.909Z,3.60
2018-08-07T00:09:30.791Z,3.47
2018-08-07T00:10:06.323Z,4.00
2018-08-07T00:10:40.259Z,3.60
2018-08-07T00:11:14.342Z,3.80
2018-08-07T00:11:48.317Z,3.73
2018-08-07T00:12:22.476Z,3.40
2018-08-07T00:12:56.151Z,3.57
2018-08-07T00:13:29.927Z,3.73
2018-08-07T00:14:03.660Z,3.83
2018-08-07T00:14:37.659Z,3.60
2018-08-07T00:15:12.714Z,3.93
2018-08-07T00:15:46.531Z,3.67
2018-08-07T00:16:20.561Z,3.73
2018-08-07T00:16:54.453Z,4.08
2018-08-07T00:17:28.392Z,3.50
2018-08-07T00:18:02.340Z,3.90
2018-08-07T00:18:36.255Z,3.20
2018-08-07T00:19:10.120Z,3.33
2018-08-07T00:19:44.268Z,3.40
2018-08-07T00:20:18.544Z,3.60
2018-08-07T00:20:52.471Z,3.40
2018-08-07T00:21:26.443Z,3.63
2018-08-07T00:22:00.512Z,3.70
2018-08-07T00:22:34.636Z,3.30
2018-08-07T00:23:09.069Z,3.70
2018-08-07T00:23:43.251Z,3.70
2018-08-07T00:24:17.251Z,3.43
2018-08-07T00:24:51.335Z,3.67
2018-08-07T00:25:25.139Z,3.53
2018-08-07T00:25:58.919Z,3.67
2018-08-07T00:26:32.931Z,3.70
2018-08-07T00:27:06.931Z,3.40
2018-08-07T00:27:41.356Z,3.53
2018-08-07T00:28:15.479Z,3.70
2018-08-07T00:28:49.489Z,3.33
2018-08-07T00:29:23.651Z,3.30
2018-08-07T00:29:57.595Z,3.67
2018-08-07T00:30:31.589Z,3.30
2018-08-07T00:31:05.563Z,3.53
2018-08-07T00:31:39.443Z,2.97
2018-08-07T00:32:13.499Z,3.27
2018-08-07T00:32:47.481Z,3.23
2018-08-07T00:33:21.584Z,3.07
2018-08-07T00:33:55.681Z,3.50
2018-08-07T00:34:29.554Z,3.20
2018-08-07T00:35:03.393Z,3.50
2018-08-07T00:35:37.340Z,3.70
2018-08-07T00:36:11.168Z,3.25
2018-08-07T00:36:45.107Z,3.37
2018-08-07T00:37:19.239Z,3.23
2018-08-07T00:37:52.997Z,3.20
2018-08-07T00:38:26.876Z,3.37
2018-08-07T00:39:00.447Z,3.57
2018-08-07T00:39:34.444Z,3.30
2018-08-07T00:40:11.279Z,3.33
2018-08-07T00:40:45.037Z,3.10
2018-08-07T00:41:19.031Z,3.70
2018-08-07T00:41:53.020Z,3.23
2018-08-07T00:42:26.864Z,3.70
2018-08-07T00:43:00.710Z,3.90
2018-08-07T00:43:34.671Z,4.03
2018-08-07T00:44:08.755Z,3.15
2018-08-07T00:44:42.911Z,3.50
2018-08-07T00:45:18.819Z,3.43
2018-08-07T00:45:52.717Z,3.30
2018-08-07T00:46:26.548Z,3.60
2018-08-07T00:47:00.573Z,3.20
2018-08-07T00:47:34.659Z,3.77
2018-08-07T00:48:08.547Z,3.40
2018-08-07T00:48:42.522Z,3.90
2018-08-07T00:49:16.464Z,3.60
2018-08-07T00:49:57.223Z,3.80
2018-08-07T00:50:31.245Z,4.77
2018-08-07T00:51:05.285Z,3.40
2018-08-07T00:51:38.965Z,3.30
2018-08-07T00:52:12.956Z,3.40
2018-08-07T00:52:48.216Z,3.70
2018-08-07T00:53:22.089Z,3.87
2018-08-07T00:53:58.898Z,3.67
2018-08-07T00:54:32.911Z,3.83
2018-08-07T00:55:08.060Z,3.77
2018-08-07T00:55:42.142Z,3.40
2018-08-07T00:56:16.168Z,3.73
2018-08-07T00:56:50.129Z,3.57
2018-08-07T00:57:23.987Z,3.37
2018-08-07T00:57:57.876Z,3.40
2018-08-07T00:58:31.644Z,3.63
2018-08-07T00:59:05.850Z,3.53
2018-08-07T00:59:39.926Z,3.63
2018-08-07T01:00:14.530Z,3.37
2018-08-07T01:00:48.716Z,3.20
2018-08-07T01:01:22.772Z,3.73
2018-08-07T01:01:56.920Z,3.17
2018-08-07T01:02:30.881Z,3.60
2018-08-07T01:03:04.851Z,3.30
2018-08-07T01:03:38.767Z,3.53
2018-08-07T01:04:12.542Z,3.70
2018-08-07T01:04:47.514Z,3.70
2018-08-07T01:05:21.622Z,3.77
2018-08-07T01:05:55.887Z,3.60
2018-08-07T01:06:29.884Z,3.60
2018-08-07T01:07:03.992Z,3.30
2018-08-07T01:07:38.210Z,3.70
2018-08-07T01:08:12.036Z,3.40
2018-08-07T01:08:45.933Z,3.67
2018-08-07T01:09:20.134Z,3.20
2018-08-07T01:09:54.486Z,3.60
2018-08-07T01:10:28.369Z,3.53
2018-08-07T01:11:02.183Z,3.30
2018-08-07T01:11:43.147Z,3.60
2018-08-07T01:12:16.928Z,3.53
2018-08-07T01:12:51.043Z,3.67
2018-08-07T01:13:25.044Z,3.67
2018-08-07T01:13:58.961Z,3.67
2018-08-07T01:14:32.908Z,3.83
2018-08-07T01:15:10.543Z,3.40
2018-08-07T01:15:44.321Z,3.60
2018-08-07T01:16:18.195Z,3.80
2018-08-07T01:16:52.089Z,3.37
2018-08-07T01:17:26.071Z,3.90
2018-08-07T01:18:00.099Z,4.27
2018-08-07T01:18:33.864Z,4.13
2018-08-07T01:19:07.877Z,3.90
2018-08-07T01:19:41.757Z,3.97
2018-08-07T01:20:21.276Z,4.13
2018-08-07T01:20:55.057Z,3.70
2018-08-07T01:21:29.020Z,3.73
2018-08-07T01:22:03.067Z,4.13
2018-08-07T01:22:37.069Z,4.00
2018-08-07T01:23:10.963Z,4.43
2018-08-07T01:23:44.810Z,4.30
2018-08-07T01:24:18.728Z,3.87
2018-08-07T01:24:53.043Z,3.73
2018-08-07T01:25:27.142Z,3.90
2018-08-07T01:26:01.061Z,3.80
2018-08-07T01:26:34.799Z,3.57
2018-08-07T01:27:08.726Z,3.90
2018-08-07T01:27:42.347Z,3.80
2018-08-07T01:28:16.103Z,4.13
2018-08-07T01:28:49.901Z,3.53
2018-08-07T01:29:23.829Z,3.60
2018-08-07T01:29:57.755Z,3.67
2018-08-07T01:30:31.603Z,3.27
2018-08-07T01:31:05.475Z,3.30
2018-08-07T01:31:39.389Z,3.83
2018-08-07T01:32:13.184Z,3.60
2018-08-07T01:32:47.161Z,3.60
2018-08-07T01:33:20.948Z,4.03
2018-08-07T01:33:54.695Z,3.83
2018-08-07T01:34:28.693Z,3.70
2018-08-07T01:35:02.462Z,3.80
2018-08-07T01:35:36.435Z,3.40
2018-08-07T01:36:10.162Z,3.30
2018-08-07T01:36:44.101Z,3.80
2018-08-07T01:37:17.868Z,3.67
2018-08-07T01:37:51.713Z,3.47
2018-08-07T01:38:25.707Z,3.40
2018-08-07T01:38:59.380Z,3.83
2018-08-07T01:39:33.482Z,4.03
2018-08-07T01:40:09.351Z,3.57
2018-08-07T01:40:43.200Z,3.70
2018-08-07T01:41:16.868Z,3.80
2018-08-07T01:41:50.588Z,4.00
2018-08-07T01:42:24.567Z,3.50
2018-08-07T01:42:58.582Z,3.70
2018-08-07T01:43:32.279Z,3.90
2018-08-07T01:44:06.291Z,3.90
2018-08-07T01:44:40.130Z,4.20
2018-08-07T01:45:14.028Z,3.90
2018-08-07T01:45:47.664Z,3.60
2018-08-07T01:46:21.434Z,3.57
2018-08-07T01:46:55.316Z,4.17
2018-08-07T01:47:29.215Z,3.50
2018-08-07T01:48:03.247Z,3.50
2018-08-07T01:48:37.134Z,3.67
2018-08-07T01:49:10.947Z,3.63
2018-08-07T01:49:44.679Z,3.77
2018-08-07T01:50:18.570Z,4.00
2018-08-07T01:50:52.451Z,4.23
2018-08-07T01:51:26.658Z,4.13
2018-08-07T01:52:00.592Z,3.77
2018-08-07T01:52:34.356Z,3.90
2018-08-07T01:53:08.016Z,3.80
2018-08-07T01:53:41.764Z,4.20
2018-08-07T01:54:15.443Z,3.67
2018-08-07T01:54:49.145Z,3.60
2018-08-07T01:55:26.385Z,4.23
2018-08-07T01:56:00.361Z,3.90
2018-08-07T01:56:34.183Z,3.73
2018-08-07T01:57:08.114Z,3.83
2018-08-07T01:57:41.950Z,3.73
2018-08-07T01:58:15.798Z,3.57
2018-08-07T01:58:49.921Z,3.83
2018-08-07T01:59:23.790Z,4.13
2018-08-07T01:59:57.695Z,3.93
2018-08-07T02:00:31.565Z,3.73
2018-08-07T02:01:05.479Z,3.60
2018-08-07T02:01:39.165Z,4.47
2018-08-07T02:02:13.099Z,4.00
2018-08-07T02:02:47.360Z,3.90
2018-08-07T02:03:21.163Z,4.47
2018-08-07T02:03:55.107Z,4.23
2018-08-07T02:04:29.187Z,3.90
2018-08-07T02:05:03.833Z,3.70
2018-08-07T02:05:37.572Z,3.67
2018-08-07T02:06:11.451Z,3.63
2018-08-07T02:06:45.243Z,4.47
2018-08-07T02:07:19.115Z,3.57
2018-08-07T02:07:53.125Z,3.83
2018-08-07T02:08:27.030Z,3.93
2018-08-07T02:09:01.065Z,3.70
2018-08-07T02:09:34.865Z,4.17
2018-08-07T02:10:11.092Z,3.70
2018-08-07T02:10:44.992Z,4.10
2018-08-07T02:11:18.747Z,3.53
2018-08-07T02:11:52.611Z,3.87
2018-08-07T02:12:26.548Z,3.93
2018-08-07T02:13:00.384Z,3.27
2018-08-07T02:13:34.508Z,3.77
2018-08-07T02:14:08.407Z,3.87
2018-08-07T02:14:42.519Z,3.57
2018-08-07T02:15:16.733Z,4.00
2018-08-07T02:15:50.479Z,4.43
2018-08-07T02:16:24.248Z,4.23
2018-08-07T02:16:58.322Z,3.63
2018-08-07T02:17:32.213Z,4.17
2018-08-07T02:18:06.207Z,4.13
2018-08-07T02:18:40.067Z,3.67
2018-08-07T02:19:13.984Z,4.50
2018-08-07T02:19:47.891Z,3.83
2018-08-07T02:20:21.679Z,3.77
2018-08-07T02:20:55.599Z,3.73
2018-08-07T02:21:29.373Z,3.90
2018-08-07T02:22:03.738Z,4.03
2018-08-07T02:22:38.092Z,3.50
2018-08-07T02:23:11.875Z,3.90
2018-08-07T02:23:45.902Z,3.97
2018-08-07T02:24:20.603Z,3.93
2018-08-07T02:24:54.383Z,3.77
2018-08-07T02:25:28.297Z,3.83
2018-08-07T02:26:02.505Z,3.57
2018-08-07T02:26:36.481Z,3.80
2018-08-07T02:27:10.256Z,4.57
2018-08-07T02:27:44.704Z,3.87
2018-08-07T02:28:18.551Z,3.67
2018-08-07T02:28:52.254Z,3.67
2018-08-07T02:29:25.944Z,3.60
2018-08-07T02:30:00.103Z,3.73
2018-08-07T02:30:33.940Z,3.70
2018-08-07T02:31:07.922Z,3.90
2018-08-07T02:31:41.596Z,4.00
2018-08-07T02:32:15.415Z,4.37
2018-08-07T02:32:49.565Z,3.67
2018-08-07T02:33:23.317Z,4.03
2018-08-07T02:33:57.092Z,4.10
2018-08-07T02:34:30.805Z,3.80
2018-08-07T02:35:05.223Z,3.70
2018-08-07T02:35:39.098Z,3.87
2018-08-07T02:36:12.911Z,3.87
2018-08-07T02:36:46.778Z,3.77
2018-08-07T02:37:20.592Z,3.70
2018-08-07T02:37:54.363Z,3.63
2018-08-07T02:38:28.247Z,3.63
2018-08-07T02:39:02.175Z,3.70
2018-08-07T02:39:36.144Z,3.77
2018-08-07T02:40:11.193Z,3.67
2018-08-07T02:40:44.935Z,3.93
2018-08-07T02:41:18.865Z,3.83
2018-08-07T02:41:52.939Z,3.80
2018-08-07T02:42:26.650Z,3.73
2018-08-07T02:43:00.291Z,4.00
2018-08-07T02:43:34.350Z,3.90
2018-08-07T02:44:08.104Z,3.60
2018-08-07T02:44:42.008Z,3.90
2018-08-07T02:45:18.155Z,4.27
2018-08-07T02:45:52.024Z,4.60
2018-08-07T02:46:25.958Z,3.87
2018-08-07T02:46:59.735Z,4.13
2018-08-07T02:47:33.561Z,4.17
2018-08-07T02:48:07.456Z,3.93
2018-08-07T02:48:41.429Z,3.73
2018-08-07T02:49:15.309Z,4.63
2018-08-07T02:49:49.516Z,4.50
2018-08-07T02:50:23.245Z,3.83
2018-08-07T02:50:57.188Z,3.77
2018-08-07T02:51:31.068Z,3.80
2018-08-07T02:52:05.056Z,4.40
2018-08-07T02:52:39.104Z,3.73
2018-08-07T02:53:12.988Z,4.17
2018-08-07T02:53:46.830Z,3.90
2018-08-07T02:54:20.716Z,4.17
2018-08-07T02:54:54.528Z,4.00
2018-08-07T02:55:28.472Z,3.63
2018-08-07T02:56:02.396Z,4.23
2018-08-07T02:56:36.155Z,3.93
2018-08-07T02:57:10.254Z,4.30
2018-08-07T02:57:44.743Z,4.00
2018-08-07T02:58:18.556Z,3.97
2018-08-07T02:58:52.558Z,3.63
2018-08-07T02:59:26.382Z,4.60
2018-08-07T03:00:00.269Z,3.97
2018-08-07T03:00:39.973Z,4.10
2018-08-07T03:01:13.732Z,3.93
2018-08-07T03:01:47.839Z,4.33
2018-08-07T03:02:21.751Z,4.30
2018-08-07T03:02:55.625Z,3.80
2018-08-07T03:03:29.621Z,4.40
2018-08-07T03:04:03.554Z,3.97
2018-08-07T03:04:37.540Z,3.87
2018-08-07T03:05:11.381Z,3.90
2018-08-07T03:05:45.227Z,3.70
2018-08-07T03:06:19.041Z,4.30
2018-08-07T03:06:52.802Z,4.27
2018-08-07T03:07:26.779Z,3.77
2018-08-07T03:08:00.795Z,4.30
2018-08-07T03:08:34.666Z,4.00
2018-08-07T03:09:09.958Z,3.90
2018-08-07T03:09:43.791Z,4.13
2018-08-07T03:10:17.872Z,4.07
2018-08-07T03:10:51.697Z,4.00
2018-08-07T03:11:25.375Z,4.20
2018-08-07T03:11:59.047Z,4.00
2018-08-07T03:12:32.955Z,4.30
2018-08-07T03:13:06.876Z,4.43
2018-08-07T03:13:40.797Z,4.57
2018-08-07T03:14:14.843Z,4.07
2018-08-07T03:14:48.988Z,3.60
2018-08-07T03:15:22.845Z,4.30
2018-08-07T03:15:56.578Z,4.73
2018-08-07T03:16:30.495Z,4.20
2018-08-07T03:17:04.343Z,3.67
2018-08-07T03:17:38.361Z,3.90
2018-08-07T03:18:12.154Z,4.17
2018-08-07T03:18:46.172Z,3.70
2018-08-07T03:19:20.127Z,3.70
2018-08-07T03:19:54.208Z,3.73
2018-08-07T03:20:28.044Z,4.27
2018-08-07T03:21:02.035Z,4.37
2018-08-07T03:21:36.022Z,3.97
2018-08-07T03:22:09.849Z,4.20
2018-08-07T03:22:43.808Z,4.10
2018-08-07T03:23:17.802Z,4.10
2018-08-07T03:23:51.607Z,4.47
2018-08-07T03:24:25.671Z,4.50
2018-08-07T03:24:59.417Z,4.10
2018-08-07T03:25:40.061Z,3.90
2018-08-07T03:26:13.949Z,3.77
2018-08-07T03:26:47.787Z,4.20
2018-08-07T03:27:22.020Z,3.80
2018-08-07T03:27:55.928Z,4.10
2018-08-07T03:28:29.669Z,3.97
2018-08-07T03:29:03.632Z,4.33
2018-08-07T03:29:37.441Z,4.40
2018-08-07T03:30:13.567Z,4.43
2018-08-07T03:30:47.532Z,4.57
2018-08-07T03:31:21.320Z,3.90
2018-08-07T03:31:55.179Z,4.27
2018-08-07T03:32:29.023Z,4.77
2018-08-07T03:33:02.702Z,4.87
2018-08-07T03:33:36.670Z,4.80
2018-08-07T03:34:10.624Z,4.17
2018-08-07T03:34:44.467Z,3.97
2018-08-07T03:35:18.575Z,4.47
2018-08-07T03:35:52.364Z,4.90
2018-08-07T03:36:26.262Z,4.37
2018-08-07T03:37:00.156Z,4.60
2018-08-07T03:37:34.270Z,4.40
2018-08-07T03:38:07.993Z,4.37
2018-08-07T03:38:41.874Z,4.13
2018-08-07T03:39:15.871Z,3.83
2018-08-07T03:39:49.719Z,4.00
2018-08-07T03:40:23.523Z,5.00
2018-08-07T03:40:57.296Z,4.03
2018-08-07T03:41:31.327Z,4.27
2018-08-07T03:42:05.200Z,4.23
2018-08-07T03:42:39.331Z,4.30
2018-08-07T03:43:13.503Z,4.10
2018-08-07T03:43:47.370Z,4.17
2018-08-07T03:44:21.438Z,4.50
2018-08-07T03:44:55.253Z,5.00
2018-08-07T03:45:29.289Z,4.53
2018-08-07T03:46:03.329Z,4.30
2018-08-07T03:46:37.403Z,4.50
2018-08-07T03:47:11.191Z,4.30
2018-08-07T03:47:45.945Z,4.60
2018-08-07T03:48:19.951Z,4.37
2018-08-07T03:48:53.829Z,4.30
2018-08-07T03:49:27.638Z,4.33
2018-08-07T03:50:01.525Z,4.53
2018-08-07T03:50:35.312Z,4.43
2018-08-07T03:51:09.005Z,4.47
2018-08-07T03:51:42.668Z,4.60
2018-08-07T03:52:16.717Z,4.70
2018-08-07T03:52:50.628Z,4.23
2018-08-07T03:53:24.328Z,4.73
2018-08-07T03:53:58.323Z,4.50
2018-08-07T03:54:32.273Z,4.50
2018-08-07T03:55:10.511Z,4.33
2018-08-07T03:55:44.258Z,4.20
2018-08-07T03:56:18.300Z,3.83
2018-08-07T03:56:52.052Z,4.20
2018-08-07T03:57:26.084Z,4.73
2018-08-07T03:58:00.081Z,4.40
2018-08-07T03:58:33.887Z,3.90
2018-08-07T03:59:07.750Z,4.50
2018-08-07T03:59:41.691Z,4.60
2018-08-07T04:00:17.857Z,4.30
2018-08-07T04:00:51.655Z,4.03
2018-08-07T04:01:25.651Z,4.10
2018-08-07T04:01:59.581Z,4.27
2018-08-07T04:02:33.595Z,4.67
2018-08-07T04:03:07.519Z,3.93
2018-08-07T04:03:41.349Z,4.33
2018-08-07T04:04:15.199Z,4.70
2018-08-07T04:04:49.489Z,4.47
2018-08-07T04:05:23.303Z,4.47
2018-08-07T04:05:57.007Z,4.83
2018-08-07T04:06:30.861Z,4.27
2018-08-07T04:07:05.000Z,4.23
2018-08-07T04:07:38.755Z,4.23
2018-08-07T04:08:12.700Z,4.17
2018-08-07T04:08:46.704Z,4.40
2018-08-07T04:09:20.552Z,4.00
2018-08-07T04:09:54.800Z,4.53
2018-08-07T04:10:28.707Z,4.83
2018-08-07T04:11:02.576Z,4.30
2018-08-07T04:11:36.423Z,4.70
2018-08-07T04:12:10.481Z,4.50
2018-08-07T04:12:44.449Z,5.00
2018-08-07T04:13:18.579Z,4.70
2018-08-07T04:13:52.477Z,4.77
2018-08-07T04:14:26.641Z,4.70
2018-08-07T04:15:00.452Z,4.63
2018-08-07T04:15:34.160Z,4.97
2018-08-07T04:16:07.919Z,4.93
2018-08-07T04:16:57.422Z,4.53
2018-08-07T04:17:31.464Z,4.57
2018-08-07T04:18:05.881Z,4.93
2018-08-07T04:18:39.516Z,4.83
2018-08-07T04:19:13.444Z,5.27
2018-08-07T04:19:47.344Z,4.43
2018-08-07T04:20:21.718Z,4.80
2018-08-07T04:20:55.556Z,4.67
2018-08-07T04:21:29.587Z,5.10
2018-08-07T04:22:03.333Z,4.80
2018-08-07T04:22:37.151Z,4.80
2018-08-07T04:23:11.148Z,4.97
2018-08-07T04:23:45.024Z,4.90
2018-08-07T04:24:18.858Z,4.83
2018-08-07T04:24:52.678Z,4.90
2018-08-07T04:25:26.528Z,4.40
2018-08-07T04:26:00.332Z,5.13
2018-08-07T04:26:34.192Z,4.53
2018-08-07T04:27:08.085Z,4.93
2018-08-07T04:27:45.043Z,4.93
2018-08-07T04:28:19.091Z,4.20
2018-08-07T04:28:53.288Z,4.83
2018-08-07T04:29:27.104Z,4.30
2018-08-07T04:30:00.796Z,4.50
2018-08-07T04:30:34.741Z,4.50
2018-08-07T04:31:08.615Z,4.40
2018-08-07T04:31:42.648Z,4.70
2018-08-07T04:32:16.611Z,4.20
2018-08-07T04:32:50.635Z,5.07
2018-08-07T04:33:24.614Z,4.47
2018-08-07T04:33:58.591Z,4.83
2018-08-07T04:34:32.450Z,4.50
2018-08-07T04:35:07.008Z,4.43
2018-08-07T04:35:40.703Z,4.87
2018-08-07T04:36:14.585Z,4.07
2018-08-07T04:36:48.713Z,4.30
2018-08-07T04:37:22.621Z,4.30
2018-08-07T04:37:56.690Z,3.70
2018-08-07T04:38:30.457Z,4.23
2018-08-07T04:39:07.138Z,4.57
2018-08-07T04:39:40.928Z,4.33
2018-08-07T04:40:14.754Z,4.00
2018-08-07T04:40:48.367Z,4.23
2018-08-07T04:41:22.352Z,4.40
2018-08-07T04:41:56.242Z,4.20
2018-08-07T04:42:30.020Z,4.33
2018-08-07T04:43:04.017Z,4.40
2018-08-07T04:43:37.801Z,4.40
2018-08-07T04:44:11.476Z,4.20
2018-08-07T04:44:45.468Z,4.30
2018-08-07T04:45:20.140Z,4.63
2018-08-07T04:45:54.123Z,4.77
2018-08-07T04:46:28.205Z,4.10
2018-08-07T04:47:02.054Z,5.00
2018-08-07T04:47:35.954Z,4.83
2018-08-07T04:48:09.959Z,4.47
2018-08-07T04:48:43.719Z,4.80
2018-08-07T04:49:17.630Z,4.40
2018-08-07T04:49:51.792Z,4.07
2018-08-07T04:50:26.079Z,4.00
2018-08-07T04:51:00.169Z,4.47
2018-08-07T04:51:34.346Z,4.00
2018-08-07T04:52:08.166Z,4.10
2018-08-07T04:52:42.166Z,4.37
2018-08-07T04:53:16.172Z,4.20
2018-08-07T04:53:50.159Z,4.23
2018-08-07T04:54:24.154Z,4.57
2018-08-07T04:54:58.221Z,4.80
2018-08-07T04:55:32.103Z,4.30
2018-08-07T04:56:06.099Z,4.93
2018-08-07T04:56:39.891Z,4.00
2018-08-07T04:57:13.526Z,4.40
2018-08-07T04:57:47.325Z,4.43
2018-08-07T04:58:21.280Z,4.20
2018-08-07T04:58:55.754Z,4.40
2018-08-07T04:59:29.702Z,4.23
2018-08-07T05:00:06.490Z,4.53
2018-08-07T05:00:40.243Z,4.43
2018-08-07T05:01:14.000Z,4.40
2018-08-07T05:01:48.043Z,4.33
2018-08-07T05:02:22.160Z,4.37
2018-08-07T05:02:56.078Z,4.27
2018-08-07T05:03:30.272Z,4.30
2018-08-07T05:04:04.229Z,4.50
2018-08-07T05:04:38.313Z,4.30
2018-08-07T05:05:12.131Z,4.20
2018-08-07T05:05:45.931Z,3.90
2018-08-07T05:06:20.020Z,4.43
2018-08-07T05:06:53.832Z,4.37
2018-08-07T05:07:28.030Z,4.57
2018-08-07T05:08:01.684Z,4.23
2018-08-07T05:08:35.373Z,4.30
2018-08-07T05:09:09.359Z,4.20
2018-08-07T05:09:43.007Z,4.47
2018-08-07T05:10:17.832Z,4.57
2018-08-07T05:10:52.071Z,4.10
2018-08-07T05:11:26.841Z,4.40
2018-08-07T05:12:00.887Z,4.17
2018-08-07T05:12:34.895Z,4.13
2018-08-07T05:13:08.838Z,4.53
2018-08-07T05:13:42.643Z,4.33
2018-08-07T05:14:16.612Z,4.37
2018-08-07T05:14:50.505Z,4.43
2018-08-07T05:15:24.367Z,4.17
2018-08-07T05:15:58.322Z,4.30
2018-08-07T05:16:32.616Z,4.50
2018-08-07T05:17:06.551Z,4.03
2018-08-07T05:17:41.576Z,4.20
2018-08-07T05:18:15.416Z,4.07
2018-08-07T05:18:49.214Z,4.43
2018-08-07T05:19:23.096Z,4.67
2018-08-07T05:19:57.012Z,4.03
2018-08-07T05:20:30.888Z,4.00
2018-08-07T05:21:05.097Z,4.60
2018-08-07T05:21:39.031Z,4.43
2018-08-07T05:22:12.796Z,4.03
2018-08-07T05:22:46.429Z,4.20
2018-08-07T05:23:20.531Z,4.60
2018-08-07T05:23:54.335Z,4.60
2018-08-07T05:24:28.363Z,4.40
2018-08-07T05:25:02.585Z,4.17
2018-08-07T05:25:36.365Z,4.53
2018-08-07T05:26:10.316Z,4.47
2018-08-07T05:26:44.294Z,4.40
2018-08-07T05:27:18.253Z,4.37
2018-08-07T05:27:52.303Z,4.80
2018-08-07T05:28:26.213Z,4.27
2018-08-07T05:29:00.070Z,4.30
2018-08-07T05:29:33.887Z,4.60
2018-08-07T05:30:09.843Z,4.27
2018-08-07T05:30:43.519Z,4.10
2018-08-07T05:31:17.525Z,4.60
2018-08-07T05:31:51.679Z,4.20
2018-08-07T05:32:25.636Z,4.23
2018-08-07T05:32:59.542Z,4.40
2018-08-07T05:33:34.965Z,4.50
2018-08-07T05:34:10.440Z,4.57
2018-08-07T05:34:50.805Z,4.40
2018-08-07T05:35:30.287Z,4.80
2018-08-07T05:36:04.747Z,4.50
2018-08-07T05:36:39.009Z,4.40
2018-08-07T05:37:16.337Z,4.73
2018-08-07T05:37:50.221Z,4.27
2018-08-07T05:38:25.187Z,4.77
2018-08-07T05:39:00.166Z,4.63
2018-08-07T05:39:36.781Z,4.33
2018-08-07T05:40:12.238Z,4.40
2018-08-07T05:40:46.915Z,4.47
2018-08-07T05:41:21.475Z,4.10
2018-08-07T05:41:56.136Z,4.53
2018-08-07T05:42:31.788Z,4.70
2018-08-07T05:43:06.875Z,4.57
2018-08-07T05:43:41.374Z,4.40
2018-08-07T05:44:15.100Z,4.85
2018-08-07T05:44:49.057Z,3.90
2018-08-07T05:45:23.103Z,4.20
2018-08-07T05:45:57.232Z,4.20
2018-08-07T05:46:31.663Z,4.87
2018-08-07T05:47:05.591Z,4.37
2018-08-07T05:47:39.722Z,4.30
2018-08-07T05:48:13.751Z,4.50
2018-08-07T05:48:47.538Z,4.50
2018-08-07T05:49:21.265Z,4.45
2018-08-07T05:49:55.238Z,4.13
2018-08-07T05:50:29.085Z,4.33
2018-08-07T05:51:03.345Z,4.00
2018-08-07T05:51:37.624Z,4.10
2018-08-07T05:52:11.316Z,4.23
2018-08-07T05:52:45.442Z,4.10
2018-08-07T05:53:19.286Z,4.15
2018-08-07T05:53:53.456Z,4.30
2018-08-07T05:54:27.403Z,4.57
2018-08-07T05:55:01.417Z,4.17
2018-08-07T05:55:35.311Z,4.70
2018-08-07T05:56:09.345Z,4.50
2018-08-07T05:56:43.365Z,4.20
2018-08-07T05:57:17.030Z,4.00
2018-08-07T05:57:51.017Z,4.47
2018-08-07T05:58:24.870Z,4.27
2018-08-07T05:58:58.739Z,4.30
2018-08-07T05:59:32.950Z,4.43
2018-08-07T06:00:13.251Z,4.60
2018-08-07T06:00:47.224Z,4.53
2018-08-07T06:01:21.276Z,4.40
2018-08-07T06:01:55.218Z,4.10
2018-08-07T06:02:29.240Z,4.33
2018-08-07T06:03:03.348Z,4.77
2018-08-07T06:03:37.415Z,4.67
2018-08-07T06:04:11.539Z,4.30
2018-08-07T06:04:45.417Z,4.10
2018-08-07T06:05:19.284Z,4.80
2018-08-07T06:05:53.260Z,4.50
2018-08-07T06:06:27.163Z,4.23
2018-08-07T06:07:00.956Z,5.07
2018-08-07T06:07:35.406Z,4.70
2018-08-07T06:08:09.277Z,4.40
2018-08-07T06:08:43.191Z,4.27
2018-08-07T06:09:16.994Z,4.53
2018-08-07T06:09:51.173Z,4.75
2018-08-07T06:10:24.856Z,5.03
2018-08-07T06:10:58.956Z,4.80
2018-08-07T06:11:32.837Z,4.47
2018-08-07T06:12:06.913Z,4.83
2018-08-07T06:12:41.110Z,4.80
2018-08-07T06:13:15.135Z,4.77
2018-08-07T06:13:48.772Z,4.60
2018-08-07T06:14:22.648Z,4.30
2018-08-07T06:14:56.656Z,4.60
2018-08-07T06:15:30.555Z,4.05
2018-08-07T06:16:04.500Z,4.50
2018-08-07T06:16:38.376Z,4.78
2018-08-07T06:17:12.266Z,4.70
2018-08-07T06:17:46.749Z,4.83
2018-08-07T06:18:20.671Z,5.20
2018-08-07T06:18:54.813Z,4.77
2018-08-07T06:19:28.780Z,4.65
2018-08-07T06:20:02.746Z,4.83
2018-08-07T06:20:36.515Z,4.93
2018-08-07T06:21:10.448Z,4.50
2018-08-07T06:21:44.451Z,4.70
2018-08-07T06:22:18.348Z,4.83
2018-08-07T06:22:52.272Z,4.65
2018-08-07T06:23:26.126Z,4.42
2018-08-07T06:23:59.947Z,5.13
2018-08-07T06:24:33.665Z,5.05
2018-08-07T06:25:08.869Z,5.15
2018-08-07T06:25:43.201Z,5.05
2018-08-07T06:26:17.036Z,4.70
2018-08-07T06:26:50.956Z,4.45
2018-08-07T06:27:24.767Z,4.80
2018-08-07T06:27:58.636Z,4.53
2018-08-07T06:28:32.526Z,4.95
2018-08-07T06:29:06.372Z,5.23
2018-08-07T06:29:40.472Z,4.33
2018-08-07T06:30:17.924Z,5.25
2018-08-07T06:30:51.895Z,4.47
2018-08-07T06:31:27.106Z,4.67
2018-08-07T06:32:01.131Z,4.90
2018-08-07T06:32:35.183Z,4.55
2018-08-07T06:33:09.186Z,4.80
2018-08-07T06:33:43.273Z,4.47
2018-08-07T06:34:17.311Z,4.90
2018-08-07T06:34:51.628Z,4.62
2018-08-07T06:35:25.843Z,4.43
2018-08-07T06:35:59.854Z,5.67
2018-08-07T06:36:34.006Z,5.00
2018-08-07T06:37:07.919Z,4.93
2018-08-07T06:37:43.076Z,4.50
2018-08-07T06:38:17.502Z,4.67
2018-08-07T06:38:51.400Z,4.33
2018-08-07T06:39:25.233Z,4.80
2018-08-07T06:40:00.098Z,5.20
2018-08-07T06:40:34.027Z,4.67
2018-08-07T06:41:07.846Z,4.90
2018-08-07T06:41:41.904Z,5.37
2018-08-07T06:42:15.687Z,4.85
2018-08-07T06:42:49.382Z,4.50
2018-08-07T06:43:23.328Z,4.60
2018-08-07T06:43:57.236Z,4.67
2018-08-07T06:44:31.043Z,4.65
2018-08-07T06:45:06.255Z,4.90
2018-08-07T06:45:40.026Z,4.33
2018-08-07T06:46:13.888Z,4.78
2018-08-07T06:46:48.041Z,4.25
2018-08-07T06:47:21.795Z,4.83
2018-08-07T06:47:55.703Z,4.70
2018-08-07T06:48:31.788Z,5.10
2018-08-07T06:49:06.909Z,4.83
2018-08-07T06:49:40.583Z,5.10
2018-08-07T06:50:16.108Z,5.40
2018-08-07T06:50:50.034Z,4.35
2018-08-07T06:51:23.969Z,5.30
2018-08-07T06:51:57.699Z,4.45
2018-08-07T06:52:31.690Z,5.17
2018-08-07T06:53:05.982Z,4.87
2018-08-07T06:53:39.654Z,5.33
2018-08-07T06:54:13.666Z,4.60
2018-08-07T06:54:47.420Z,4.90
2018-08-07T06:55:21.365Z,5.45
2018-08-07T06:55:55.558Z,4.83
2018-08-07T06:56:29.606Z,5.10
2018-08-07T06:57:03.606Z,4.45
2018-08-07T06:57:37.649Z,4.40
2018-08-07T06:58:11.765Z,4.83
2018-08-07T06:58:45.766Z,5.20
2018-08-07T06:59:19.635Z,5.20
2018-08-07T06:59:53.535Z,5.05
2018-08-07T07:00:27.368Z,4.95
2018-08-07T07:01:01.232Z,5.20
2018-08-07T07:01:35.048Z,5.60
2018-08-07T07:02:08.895Z,5.15
2018-08-07T07:02:42.976Z,5.10
2018-08-07T07:03:16.685Z,4.53
2018-08-07T07:03:50.698Z,5.47
2018-08-07T07:04:24.546Z,5.05
2018-08-07T07:04:58.371Z,5.25
2018-08-07T07:05:32.462Z,4.83
2018-08-07T07:06:06.294Z,5.00
2018-08-07T07:06:40.154Z,4.97
2018-08-07T07:07:14.389Z,4.90
2018-08-07T07:07:49.318Z,5.10
2018-08-07T07:08:23.507Z,4.90
2018-08-07T07:08:58.532Z,4.33
2018-08-07T07:09:32.524Z,4.45
2018-08-07T07:10:07.889Z,5.10
2018-08-07T07:10:41.588Z,5.15
2018-08-07T07:11:15.467Z,4.70
2018-08-07T07:11:49.475Z,5.33
2018-08-07T07:12:23.303Z,4.80
2018-08-07T07:12:57.207Z,5.08
2018-08-07T07:13:30.999Z,4.87
2018-08-07T07:14:05.106Z,5.12
2018-08-07T07:14:39.205Z,5.12
2018-08-07T07:15:14.421Z,5.15
2018-08-07T07:15:48.332Z,5.40
2018-08-07T07:16:22.405Z,4.60
2018-08-07T07:16:56.464Z,4.78
2018-08-07T07:17:30.300Z,4.70
2018-08-07T07:18:04.567Z,5.12
2018-08-07T07:18:38.138Z,5.15
2018-08-07T07:19:11.889Z,4.75
2018-08-07T07:19:45.832Z,5.10
2018-08-07T07:20:19.985Z,4.75
2018-08-07T07:20:54.263Z,4.50
2018-08-07T07:21:28.485Z,4.17
2018-08-07T07:22:02.343Z,4.50
2018-08-07T07:22:36.088Z,5.55
2018-08-07T07:23:10.061Z,4.62
2018-08-07T07:23:43.762Z,5.37
2018-08-07T07:24:18.550Z,4.95
2018-08-07T07:24:52.902Z,4.45
2018-08-07T07:25:26.764Z,4.45
2018-08-07T07:26:00.772Z,4.53
2018-08-07T07:26:34.725Z,4.83
2018-08-07T07:27:08.375Z,4.60
2018-08-07T07:27:42.989Z,4.62
2018-08-07T07:28:16.852Z,4.87
2018-08-07T07:28:51.005Z,4.40
2018-08-07T07:29:24.991Z,4.45
2018-08-07T07:29:58.945Z,4.60
2018-08-07T07:30:32.826Z,4.47
2018-08-07T07:31:06.826Z,4.80
2018-08-07T07:31:40.704Z,4.47
2018-08-07T07:32:14.737Z,4.45
2018-08-07T07:32:50.694Z,4.40
2018-08-07T07:33:24.502Z,4.42
2018-08-07T07:33:58.468Z,4.90
2018-08-07T07:34:32.694Z,4.15
2018-08-07T07:35:07.595Z,4.15
2018-08-07T07:35:41.513Z,4.37